sensor_id;sensor_type;location;lat;lon;timestamp;pressure;altitude;pressure_sealevel;temperature;humidity
36304;BME280;22335;49.800;8.596;2023-04-06T00:05:16;100810.88;;;11.00;33.21
36304;BME280;22335;49.800;8.596;2023-04-06T00:11:59;100813.88;;;10.98;33.45
36304;BME280;22335;49.800;8.596;2023-04-06T00:18:43;100738.25;;;10.27;33.64
36304;BME280;22335;49.800;8.596;2023-04-06T00:25:28;100808.97;;;10.85;33.67
36304;BME280;22335;49.800;8.596;2023-04-06T00:32:12;100793.38;;;10.91;33.68
36304;BME280;22335;49.800;8.596;2023-04-06T00:38:56;100803.72;;;10.99;33.41
36304;BME280;22335;49.800;8.596;2023-04-06T00:45:41;100795.88;;;10.77;33.96
36304;BME280;22335;49.800;8.596;2023-04-06T00:52:25;100788.25;;;10.69;34.14
36304;BME280;22335;49.800;8.596;2023-04-06T00:59:10;100776.47;;;10.58;34.01
36304;BME280;22335;49.800;8.596;2023-04-06T01:05:56;100769.97;;;10.44;33.89
36304;BME280;22335;49.800;8.596;2023-04-06T01:12:47;100763.94;;;10.36;34.46
36304;BME280;22335;49.800;8.596;2023-04-06T01:19:40;100636.13;;;9.41;34.90
36304;BME280;22335;49.800;8.596;2023-04-06T01:26:33;100766.69;;;10.31;34.82
36304;BME280;22335;49.800;8.596;2023-04-06T01:33:21;100743.44;;;9.83;35.51
36304;BME280;22335;49.800;8.596;2023-04-06T01:40:16;100766.13;;;10.14;35.88
36304;BME280;22335;49.800;8.596;2023-04-06T01:47:05;100763.94;;;10.06;36.00
36304;BME280;22335;49.800;8.596;2023-04-06T01:53:49;100764.22;;;9.94;35.84
36304;BME280;22335;49.800;8.596;2023-04-06T02:00:36;100754.66;;;9.76;35.95
36304;BME280;22335;49.800;8.596;2023-04-06T02:07:22;100719.63;;;9.47;36.18
36304;BME280;22335;49.800;8.596;2023-04-06T02:14:06;100742.84;;;9.50;36.40
36304;BME280;22335;49.800;8.596;2023-04-06T02:20:55;100751.31;;;9.49;36.41
36304;BME280;22335;49.800;8.596;2023-04-06T02:27:40;100744.50;;;9.46;36.22
36304;BME280;22335;49.800;8.596;2023-04-06T02:34:24;100747.50;;;9.39;36.69
36304;BME280;22335;49.800;8.596;2023-04-06T02:41:08;100748.59;;;9.49;36.92
36304;BME280;22335;49.800;8.596;2023-04-06T03:02:56;100744.72;;;9.24;37.24
36304;BME280;22335;49.800;8.596;2023-04-06T03:09:41;100751.00;;;9.30;37.00
36304;BME280;22335;49.800;8.596;2023-04-06T03:16:25;100751.56;;;9.27;37.43
36304;BME280;22335;49.800;8.596;2023-04-06T03:23:10;100743.91;;;9.23;37.68
36304;BME280;22335;49.800;8.596;2023-04-06T03:29:56;100754.47;;;9.05;37.51
36304;BME280;22335;49.800;8.596;2023-04-06T03:36:46;100761.59;;;9.11;36.94
36304;BME280;22335;49.800;8.596;2023-04-06T03:43:36;100754.22;;;9.11;37.43
36304;BME280;22335;49.800;8.596;2023-04-06T03:50:20;100763.75;;;9.09;37.44
36304;BME280;22335;49.800;8.596;2023-04-06T03:57:04;100704.44;;;8.73;37.19
36304;BME280;22335;49.800;8.596;2023-04-06T04:03:49;100751.97;;;8.93;37.00
36304;BME280;22335;49.800;8.596;2023-04-06T04:10:33;100759.56;;;8.81;37.36
36304;BME280;22335;49.800;8.596;2023-04-06T04:17:17;100773.94;;;8.66;37.23
36304;BME280;22335;49.800;8.596;2023-04-06T04:24:02;100775.28;;;8.63;37.39
36304;BME280;22335;49.800;8.596;2023-04-06T04:30:48;100773.34;;;8.59;37.44
36304;BME280;22335;49.800;8.596;2023-04-06T04:37:32;100777.50;;;8.71;37.90
36304;BME280;22335;49.800;8.596;2023-04-06T04:44:19;100752.06;;;8.56;37.88
36304;BME280;22335;49.800;8.596;2023-04-06T04:51:04;100787.59;;;8.71;37.56
36304;BME280;22335;49.800;8.596;2023-04-06T04:58:20;100784.22;;;8.53;37.57
36304;BME280;22335;49.800;8.596;2023-04-06T05:05:10;100788.81;;;8.48;38.06
36304;BME280;22335;49.800;8.596;2023-04-06T05:11:55;100795.88;;;8.44;38.36
36304;BME280;22335;49.800;8.596;2023-04-06T05:18:39;100802.72;;;8.46;38.77
36304;BME280;22335;49.800;8.596;2023-04-06T05:25:24;100790.41;;;8.44;38.07
36304;BME280;22335;49.800;8.596;2023-04-06T05:32:11;100788.41;;;8.34;38.26
36304;BME280;22335;49.800;8.596;2023-04-06T05:38:55;100802.19;;;8.49;38.60
36304;BME280;22335;49.800;8.596;2023-04-06T05:45:54;100803.28;;;8.53;38.55
36304;BME280;22335;49.800;8.596;2023-04-06T05:52:38;100811.53;;;8.59;38.54
36304;BME280;22335;49.800;8.596;2023-04-06T05:59:26;100811.25;;;8.60;38.20
36304;BME280;22335;49.800;8.596;2023-04-06T06:06:11;100806.41;;;8.72;38.75
36304;BME280;22335;49.800;8.596;2023-04-06T06:13:17;100801.19;;;9.18;37.93
36304;BME280;22335;49.800;8.596;2023-04-06T06:20:01;100781.81;;;9.25;38.32
36304;BME280;22335;49.800;8.596;2023-04-06T06:26:46;100796.88;;;9.38;38.36
36304;BME280;22335;49.800;8.596;2023-04-06T06:33:32;100796.38;;;9.46;39.19
36304;BME280;22335;49.800;8.596;2023-04-06T06:40:17;100795.06;;;9.64;38.83
36304;BME280;22335;49.800;8.596;2023-04-06T06:47:03;100793.44;;;9.88;38.85
36304;BME280;22335;49.800;8.596;2023-04-06T06:53:47;100799.19;;;10.02;38.54
36304;BME280;22335;49.800;8.596;2023-04-06T07:00:31;100797.59;;;10.27;39.06
36304;BME280;22335;49.800;8.596;2023-04-06T07:07:16;100798.91;;;10.50;39.07
36304;BME280;22335;49.800;8.596;2023-04-06T07:14:00;100796.72;;;10.52;39.28
36304;BME280;22335;49.800;8.596;2023-04-06T07:20:44;100797.78;;;10.71;39.70
36304;BME280;22335;49.800;8.596;2023-04-06T07:27:30;100648.34;;;10.10;39.61
36304;BME280;22335;49.800;8.596;2023-04-06T07:34:14;100794.81;;;11.43;39.84
36304;BME280;22335;49.800;8.596;2023-04-06T07:40:58;100796.19;;;11.80;40.05
36304;BME280;22335;49.800;8.596;2023-04-06T07:47:46;100800.38;;;11.72;39.51
36304;BME280;22335;49.800;8.596;2023-04-06T07:54:30;100793.63;;;11.54;39.77
36304;BME280;22335;49.800;8.596;2023-04-06T08:01:13;100806.22;;;11.55;39.37
36304;BME280;22335;49.800;8.596;2023-04-06T08:07:58;100802.19;;;11.42;39.59
36304;BME280;22335;49.800;8.596;2023-04-06T08:14:42;100803.13;;;11.67;39.66
36304;BME280;22335;49.800;8.596;2023-04-06T08:21:26;100739.19;;;11.42;39.19
36304;BME280;22335;49.800;8.596;2023-04-06T08:28:11;100792.25;;;12.01;39.74
36304;BME280;22335;49.800;8.596;2023-04-06T08:34:54;100803.19;;;12.35;39.39
36304;BME280;22335;49.800;8.596;2023-04-06T08:41:41;100792.50;;;12.63;39.11
36304;BME280;22335;49.800;8.596;2023-04-06T08:48:26;100787.97;;;12.77;38.62
36304;BME280;22335;49.800;8.596;2023-04-06T08:55:10;100790.97;;;12.81;38.28
36304;BME280;22335;49.800;8.596;2023-04-06T09:01:55;100781.84;;;12.85;37.94
36304;BME280;22335;49.800;8.596;2023-04-06T09:08:40;100785.69;;;13.08;37.82
36304;BME280;22335;49.800;8.596;2023-04-06T09:15:24;100783.31;;;13.26;36.78
36304;BME280;22335;49.800;8.596;2023-04-06T09:22:09;100783.41;;;13.58;37.37
36304;BME280;22335;49.800;8.596;2023-04-06T09:28:54;100768.19;;;13.85;37.30
36304;BME280;22335;49.800;8.596;2023-04-06T09:35:39;100768.50;;;14.16;36.36
36304;BME280;22335;49.800;8.596;2023-04-06T09:42:23;100736.09;;;14.13;36.04
36304;BME280;22335;49.800;8.596;2023-04-06T09:49:10;100772.13;;;14.44;36.67
36304;BME280;22335;49.800;8.596;2023-04-06T09:55:57;100763.22;;;14.66;35.75
36304;BME280;22335;49.800;8.596;2023-04-06T10:02:50;100758.44;;;14.86;36.05
36304;BME280;22335;49.800;8.596;2023-04-06T10:09:40;100737.41;;;15.04;35.38
36304;BME280;22335;49.800;8.596;2023-04-06T10:16:27;100721.03;;;15.35;34.72
36304;BME280;22335;49.800;8.596;2023-04-06T10:23:13;100751.63;;;15.83;34.47
36304;BME280;22335;49.800;8.596;2023-04-06T10:30:05;100747.31;;;16.13;34.15
36304;BME280;22335;49.800;8.596;2023-04-06T10:36:49;100704.59;;;16.42;34.40
36304;BME280;22335;49.800;8.596;2023-04-06T10:43:34;100734.16;;;16.81;33.87
36304;BME280;22335;49.800;8.596;2023-04-06T10:50:20;100725.16;;;17.07;32.97
36304;BME280;22335;49.800;8.596;2023-04-06T10:57:04;100716.38;;;17.05;31.95
36304;BME280;22335;49.800;8.596;2023-04-06T11:03:49;100701.72;;;16.96;31.80
36304;BME280;22335;49.800;8.596;2023-04-06T11:10:34;100705.56;;;16.77;31.52
36304;BME280;22335;49.800;8.596;2023-04-06T11:17:25;100695.47;;;16.73;30.71
36304;BME280;22335;49.800;8.596;2023-04-06T11:24:11;100690.34;;;16.89;30.93
36304;BME280;22335;49.800;8.596;2023-04-06T11:30:56;100681.88;;;16.85;31.12
36304;BME280;22335;49.800;8.596;2023-04-06T11:37:43;100673.91;;;16.83;31.31
36304;BME280;22335;49.800;8.596;2023-04-06T11:44:31;100633.50;;;16.56;30.27
36304;BME280;22335;49.800;8.596;2023-04-06T11:51:23;100508.75;;;15.88;30.23
36304;BME280;22335;49.800;8.596;2023-04-06T11:58:08;100658.59;;;16.77;29.67
36304;BME280;22335;49.800;8.596;2023-04-06T12:04:51;100648.38;;;16.87;29.51
36304;BME280;22335;49.800;8.596;2023-04-06T12:11:36;100651.84;;;17.10;29.99
36304;BME280;22335;49.800;8.596;2023-04-06T12:18:20;100642.72;;;16.92;29.04
36304;BME280;22335;49.800;8.596;2023-04-06T12:25:04;100604.63;;;16.71;30.12
36304;BME280;22335;49.800;8.596;2023-04-06T12:31:49;100633.63;;;17.09;29.62
36304;BME280;22335;49.800;8.596;2023-04-06T12:38:34;100628.75;;;17.05;29.96
36304;BME280;22335;49.800;8.596;2023-04-06T12:45:20;100630.72;;;17.14;30.18
36304;BME280;22335;49.800;8.596;2023-04-06T12:52:07;100627.28;;;17.08;30.01
36304;BME280;22335;49.800;8.596;2023-04-06T12:58:51;100618.19;;;17.34;29.50
36304;BME280;22335;49.800;8.596;2023-04-06T13:05:35;100617.06;;;17.35;29.28
36304;BME280;22335;49.800;8.596;2023-04-06T13:12:20;100607.78;;;17.31;28.76
36304;BME280;22335;49.800;8.596;2023-04-06T13:19:03;100605.19;;;17.17;28.33
36304;BME280;22335;49.800;8.596;2023-04-06T13:25:47;100605.69;;;17.19;28.37
36304;BME280;22335;49.800;8.596;2023-04-06T13:32:32;100595.75;;;17.26;28.10
36304;BME280;22335;49.800;8.596;2023-04-06T13:39:16;100587.59;;;17.56;28.69
36304;BME280;22335;49.800;8.596;2023-04-06T13:46:00;100584.97;;;17.51;28.40
36304;BME280;22335;49.800;8.596;2023-04-06T13:52:45;100586.13;;;17.50;28.57
36304;BME280;22335;49.800;8.596;2023-04-06T13:59:33;100571.47;;;17.49;28.37
36304;BME280;22335;49.800;8.596;2023-04-06T14:06:16;100587.53;;;17.65;28.72
36304;BME280;22335;49.800;8.596;2023-04-06T14:13:09;100585.63;;;17.65;29.31
36304;BME280;22335;49.800;8.596;2023-04-06T14:19:53;100562.94;;;17.81;28.62
36304;BME280;22335;49.800;8.596;2023-04-06T14:26:37;100575.28;;;17.92;29.57
36304;BME280;22335;49.800;8.596;2023-04-06T14:33:22;100566.19;;;17.91;28.54
36304;BME280;22335;49.800;8.596;2023-04-06T14:40:07;100566.16;;;18.00;27.99
36304;BME280;22335;49.800;8.596;2023-04-06T14:46:50;100571.19;;;17.98;28.66
36304;BME280;22335;49.800;8.596;2023-04-06T14:53:35;100563.13;;;18.23;28.55
36304;BME280;22335;49.800;8.596;2023-04-06T15:00:19;100565.56;;;18.24;28.83
36304;BME280;22335;49.800;8.596;2023-04-06T15:07:03;100563.69;;;18.37;29.07
36304;BME280;22335;49.800;8.596;2023-04-06T15:13:47;100556.16;;;18.46;28.95
36304;BME280;22335;49.800;8.596;2023-04-06T15:20:32;100556.41;;;18.53;29.26
36304;BME280;22335;49.800;8.596;2023-04-06T15:27:16;100557.09;;;18.20;28.37
36304;BME280;22335;49.800;8.596;2023-04-06T15:34:01;100561.28;;;18.27;28.93
36304;BME280;22335;49.800;8.596;2023-04-06T15:40:45;100561.69;;;18.46;29.07
36304;BME280;22335;49.800;8.596;2023-04-06T15:47:29;100561.28;;;18.56;27.60
36304;BME280;22335;49.800;8.596;2023-04-06T15:54:14;100559.09;;;18.71;27.60
36304;BME280;22335;49.800;8.596;2023-04-06T16:00:58;100559.44;;;18.39;27.53
36304;BME280;22335;49.800;8.596;2023-04-06T16:07:42;100556.41;;;18.24;28.04
36304;BME280;22335;49.800;8.596;2023-04-06T16:14:27;100577.91;;;17.88;28.20
36304;BME280;22335;49.800;8.596;2023-04-06T16:21:14;100558.41;;;17.85;28.49
36304;BME280;22335;49.800;8.596;2023-04-06T16:27:58;100571.97;;;18.07;28.90
36304;BME280;22335;49.800;8.596;2023-04-06T16:34:43;100567.91;;;18.05;28.15
36304;BME280;22335;49.800;8.596;2023-04-06T16:41:27;100574.44;;;18.09;28.20
36304;BME280;22335;49.800;8.596;2023-04-06T16:48:11;100568.13;;;18.00;28.43
36304;BME280;22335;49.800;8.596;2023-04-06T16:54:57;100579.47;;;18.07;28.47
36304;BME280;22335;49.800;8.596;2023-04-06T17:01:45;100573.31;;;18.01;28.49
36304;BME280;22335;49.800;8.596;2023-04-06T17:08:29;100572.00;;;17.98;29.03
36304;BME280;22335;49.800;8.596;2023-04-06T17:15:15;100564.72;;;17.94;29.61
36304;BME280;22335;49.800;8.596;2023-04-06T17:21:59;100575.13;;;17.97;29.58
36304;BME280;22335;49.800;8.596;2023-04-06T17:28:44;100575.28;;;17.92;29.97
36304;BME280;22335;49.800;8.596;2023-04-06T17:35:28;100573.19;;;17.89;29.79
36304;BME280;22335;49.800;8.596;2023-04-06T17:42:12;100580.53;;;17.85;30.07
36304;BME280;22335;49.800;8.596;2023-04-06T17:48:55;100447.88;;;16.86;30.71
36304;BME280;22335;49.800;8.596;2023-04-06T17:55:40;100588.53;;;17.78;30.97
36304;BME280;22335;49.800;8.596;2023-04-06T18:02:24;100602.59;;;17.38;31.46
36304;BME280;22335;49.800;8.596;2023-04-06T18:09:07;100612.50;;;17.39;31.47
36304;BME280;22335;49.800;8.596;2023-04-06T18:15:52;100606.97;;;17.13;32.41
36304;BME280;22335;49.800;8.596;2023-04-06T18:22:35;100612.81;;;17.11;32.64
36304;BME280;22335;49.800;8.596;2023-04-06T18:29:19;100626.81;;;17.15;32.84
36304;BME280;22335;49.800;8.596;2023-04-06T18:36:05;100584.47;;;16.71;33.48
36304;BME280;22335;49.800;8.596;2023-04-06T18:42:50;100641.75;;;17.05;34.13
36304;BME280;22335;49.800;8.596;2023-04-06T18:49:33;100647.59;;;16.95;34.71
36304;BME280;22335;49.800;8.596;2023-04-06T18:56:18;100648.56;;;16.99;35.29
36304;BME280;22335;49.800;8.596;2023-04-06T19:03:02;100662.06;;;16.92;35.93
36304;BME280;22335;49.800;8.596;2023-04-06T19:09:46;100598.81;;;16.24;36.91
36304;BME280;22335;49.800;8.596;2023-04-06T19:16:31;100679.16;;;16.54;38.03
36304;BME280;22335;49.800;8.596;2023-04-06T19:23:16;100685.19;;;16.65;36.13
36304;BME280;22335;49.800;8.596;2023-04-06T19:29:59;100690.84;;;16.51;38.77
36304;BME280;22335;49.800;8.596;2023-04-06T19:36:44;100652.03;;;16.16;39.86
36304;BME280;22335;49.800;8.596;2023-04-06T19:43:28;100694.91;;;16.22;40.88
36304;BME280;22335;49.800;8.596;2023-04-06T19:50:11;100693.63;;;15.97;41.66
36304;BME280;22335;49.800;8.596;2023-04-06T19:56:57;100706.75;;;15.69;42.86
36304;BME280;22335;49.800;8.596;2023-04-06T20:03:41;100694.72;;;15.29;43.78
36304;BME280;22335;49.800;8.596;2023-04-06T20:10:25;100702.75;;;14.75;45.29
36304;BME280;22335;49.800;8.596;2023-04-06T20:17:10;100705.44;;;14.34;46.82
36304;BME280;22335;49.800;8.596;2023-04-06T20:23:56;100671.28;;;13.74;48.01
36304;BME280;22335;49.800;8.596;2023-04-06T20:30:40;100690.53;;;13.74;48.00
36304;BME280;22335;49.800;8.596;2023-04-06T20:37:25;100693.25;;;13.60;49.12
36304;BME280;22335;49.800;8.596;2023-04-06T20:44:09;100690.72;;;13.45;49.91
36304;BME280;22335;49.800;8.596;2023-04-06T20:50:53;100692.13;;;13.43;50.31
36304;BME280;22335;49.800;8.596;2023-04-06T20:57:39;100686.28;;;13.30;51.22
36304;BME280;22335;49.800;8.596;2023-04-06T21:04:22;100663.63;;;13.20;51.31
36304;BME280;22335;49.800;8.596;2023-04-06T21:11:06;100654.63;;;13.14;52.23
36304;BME280;22335;49.800;8.596;2023-04-06T21:17:52;100665.25;;;13.21;52.61
36304;BME280;22335;49.800;8.596;2023-04-06T21:24:36;100657.00;;;13.02;52.56
36304;BME280;22335;49.800;8.596;2023-04-06T21:31:19;100653.22;;;12.98;53.08
36304;BME280;22335;49.800;8.596;2023-04-06T21:38:04;100646.41;;;12.95;53.35
36304;BME280;22335;49.800;8.596;2023-04-06T21:44:47;100630.78;;;13.09;52.84
36304;BME280;22335;49.800;8.596;2023-04-06T21:51:31;100626.44;;;13.08;53.13
36304;BME280;22335;49.800;8.596;2023-04-06T21:58:17;100623.31;;;12.96;53.50
36304;BME280;22335;49.800;8.596;2023-04-06T22:05:00;100618.72;;;12.91;53.42
36304;BME280;22335;49.800;8.596;2023-04-06T22:11:43;100613.28;;;12.67;54.21
36304;BME280;22335;49.800;8.596;2023-04-06T22:18:28;100598.81;;;12.38;54.99
36304;BME280;22335;49.800;8.596;2023-04-06T22:25:12;100595.50;;;12.17;55.75
36304;BME280;22335;49.800;8.596;2023-04-06T22:31:55;100598.59;;;12.10;55.71
36304;BME280;22335;49.800;8.596;2023-04-06T22:38:40;100594.03;;;12.00;56.36
36304;BME280;22335;49.800;8.596;2023-04-06T22:45:24;100584.19;;;11.99;56.42
36304;BME280;22335;49.800;8.596;2023-04-06T22:52:08;100582.66;;;11.88;57.07
36304;BME280;22335;49.800;8.596;2023-04-06T22:58:53;100571.25;;;11.76;57.50
36304;BME280;22335;49.800;8.596;2023-04-06T23:05:37;100570.25;;;11.67;57.58
36304;BME280;22335;49.800;8.596;2023-04-06T23:12:21;100556.91;;;11.60;58.41
36304;BME280;22335;49.800;8.596;2023-04-06T23:19:06;100549.59;;;11.50;58.64
36304;BME280;22335;49.800;8.596;2023-04-06T23:25:50;100557.47;;;11.57;58.65
36304;BME280;22335;49.800;8.596;2023-04-06T23:32:34;100553.22;;;11.46;59.17
36304;BME280;22335;49.800;8.596;2023-04-06T23:39:19;100542.88;;;11.38;59.35
36304;BME280;22335;49.800;8.596;2023-04-06T23:46:02;100538.25;;;11.33;59.45
36304;BME280;22335;49.800;8.596;2023-04-06T23:52:46;100531.69;;;11.34;59.60
36304;BME280;22335;49.800;8.596;2023-04-06T23:59:31;100523.50;;;11.29;59.93
